Time;durP1;ratioP1;P1;durP2;ratioP2;P2;SDS_P1;SDS_P2;PMS_P1;PMS_P2;Temp;Humidity;BMP_temperature;BMP_pressure;BME280_temperature;BME280_humidity;BME280_pressure;Samples;Min_cycle;Max_cycle;Signal;HPM_P1;HPM_P2
2022/01/24 00:02:22;;;;;;;;;;;;;;;29.29;23.79;102573.47;5014807;28;1249;-72
2022/01/24 00:04:50;;;;;;;;;;;;;;;29.06;24.12;102587.69;5014245;28;1034;-72
2022/01/24 00:07:20;;;;;;;;;;;;;;;29.12;24.13;102574.84;5014632;28;903;-73
2022/01/24 00:09:46;;;;;;;;;;;;;;;29.19;24.03;102575.75;5012972;28;1381;-72
2022/01/24 00:12:17;;;;;;;;;;;;;;;29.54;23.72;102576.63;5014459;28;876;-73
2022/01/24 00:15:04;;;;;;;;;;;;;;;29.67;23.31;102578.63;5014350;28;1910;-72
2022/01/24 00:17:35;;;;;;;;;;;;;;;29.76;23.28;102576.50;5014328;28;1074;-73
2022/01/24 00:28:13;;;;;;;;;;;;;;;28.92;24.20;102581.16;5014343;28;860;-72
2022/01/24 00:30:40;;;;;;;;;;;;;;;28.94;24.55;102580.94;5014031;28;1367;-71
2022/01/24 00:33:06;;;;;;;;;;;;;;;28.99;24.13;102576.47;5012965;28;978;-72
2022/01/24 00:35:33;;;;;;;;;;;;;;;29.50;23.52;102582.84;5013811;28;1984;-70
2022/01/24 00:38:01;;;;;;;;;;;;;;;29.34;23.78;102576.53;5014268;28;990;-70
2022/01/24 00:40:28;;;;;;;;;;;;;;;28.76;24.56;102575.88;5013994;28;1301;-72
2022/01/24 00:42:57;;;;;;;;;;;;;;;29.31;23.95;102574.13;5013942;28;884;-72
2022/01/24 00:45:32;;;;;;;;;;;;;;;29.16;24.40;102571.41;5013476;28;1027;-71
2022/01/24 00:48:27;;;;;;;;;;;;;;;29.39;24.01;102576.75;5012651;28;944;-72
2022/01/24 00:54:00;;;;;;;;;;;;;;;29.38;23.84;102572.25;5012559;28;1058;-72
2022/01/24 00:56:26;;;;;;;;;;;;;;;29.54;23.46;102565.44;5012891;28;1045;-71
2022/01/24 00:58:52;;;;;;;;;;;;;;;29.29;23.78;102567.00;5013750;28;1008;-70
2022/01/24 01:01:18;;;;;;;;;;;;;;;29.29;24.08;102567.00;5012802;28;1314;-72
2022/01/24 01:03:46;;;;;;;;;;;;;;;28.24;25.06;102567.59;5012388;28;797;-70
2022/01/24 01:06:13;;;;;;;;;;;;;;;28.31;25.14;102570.47;4995503;28;1225;-72
2022/01/24 01:19:39;;;;;;;;;;;;;;;29.15;24.15;102582.81;5013219;28;1407;-72
2022/01/24 01:22:05;;;;;;;;;;;;;;;28.90;24.38;102577.69;5013341;28;927;-70
2022/01/24 01:24:36;;;;;;;;;;;;;;;28.61;24.67;102578.69;5012851;28;982;-73
2022/01/24 01:27:07;;;;;;;;;;;;;;;28.94;24.54;102579.00;5013343;28;800;-73
2022/01/24 01:29:45;;;;;;;;;;;;;;;28.97;24.30;102586.09;5013057;28;1287;-72
2022/01/24 01:32:18;;;;;;;;;;;;;;;28.63;24.77;102576.56;5013227;28;1065;-73
2022/01/24 01:35:02;;;;;;;;;;;;;;;29.04;24.24;102589.84;4994958;28;1978;-74
2022/01/24 01:40:42;;;;;;;;;;;;;;;29.15;24.08;102580.88;5012589;28;1430;-73
2022/01/24 01:54:25;;;;;;;;;;;;;;;29.59;23.54;102576.00;5012243;28;1911;-71
2022/01/24 01:56:51;;;;;;;;;;;;;;;28.99;24.36;102582.03;5011780;28;1059;-71
2022/01/24 01:59:17;;;;;;;;;;;;;;;29.13;24.23;102583.03;5012791;28;927;-72
2022/01/24 02:01:44;;;;;;;;;;;;;;;29.31;23.75;102574.13;5012615;28;1275;-70
2022/01/24 02:04:10;;;;;;;;;;;;;;;29.15;23.80;102585.59;5012354;28;848;-72
2022/01/24 02:06:38;;;;;;;;;;;;;;;29.23;23.74;102572.31;5012291;28;935;-71
2022/01/24 02:09:06;;;;;;;;;;;;;;;28.99;24.26;102581.19;5011612;28;967;-71
2022/01/24 02:11:32;;;;;;;;;;;;;;;28.75;24.47;102572.19;5010870;28;1345;-73
2022/01/24 02:14:03;;;;;;;;;;;;;;;28.59;24.71;102559.34;5012233;28;967;-71
2022/01/24 02:16:37;;;;;;;;;;;;;;;29.46;23.75;102559.16;5012096;28;1907;-73
2022/01/24 02:19:14;;;;;;;;;;;;;;;29.06;24.00;102562.53;5012216;28;816;-73
2022/01/24 02:21:47;;;;;;;;;;;;;;;29.39;23.60;102557.16;5012044;28;1282;-73
2022/01/24 02:24:14;;;;;;;;;;;;;;;28.73;24.24;102560.38;5013001;28;1031;-74
2022/01/24 02:26:41;;;;;;;;;;;;;;;29.04;24.23;102557.16;4994628;28;1320;-73
2022/01/24 02:29:13;;;;;;;;;;;;;;;29.06;24.26;102555.03;5010708;28;1151;-73
2022/01/24 02:31:42;;;;;;;;;;;;;;;28.94;24.44;102553.00;5010610;28;1835;-73
2022/01/24 02:34:24;;;;;;;;;;;;;;;28.03;25.08;102549.78;5011883;28;834;-72
2022/01/24 02:36:52;;;;;;;;;;;;;;;28.12;25.51;102558.88;5011897;28;911;-73
2022/01/24 02:39:44;;;;;;;;;;;;;;;27.74;25.88;102550.69;5012220;28;987;-73
2022/01/24 02:50:35;;;;;;;;;;;;;;;28.31;25.35;102557.34;5011526;28;1350;-72
2022/01/24 02:53:03;;;;;;;;;;;;;;;28.96;24.22;102560.09;5010276;28;959;-71
2022/01/24 02:55:30;;;;;;;;;;;;;;;28.32;24.99;102555.44;5011325;28;1922;-72
2022/01/24 02:57:56;;;;;;;;;;;;;;;27.47;26.11;102546.69;5010135;28;1164;-73
2022/01/24 03:00:22;;;;;;;;;;;;;;;27.93;25.94;102543.63;5014176;28;1521;-73
2022/01/24 03:02:48;;;;;;;;;;;;;;;28.33;25.02;102548.81;5017016;28;1017;-71
2022/01/24 03:05:15;;;;;;;;;;;;;;;28.55;24.60;102541.25;5015661;28;1039;-71
2022/01/24 03:07:41;;;;;;;;;;;;;;;28.26;25.32;102543.16;5011600;28;911;-71
2022/01/24 03:10:14;;;;;;;;;;;;;;;28.19;25.30;102545.88;5010019;28;1320;-71
2022/01/24 03:12:43;;;;;;;;;;;;;;;27.50;26.13;102546.28;5011437;28;1002;-70
2022/01/24 03:15:10;;;;;;;;;;;;;;;27.10;27.04;102540.13;5011074;28;1967;-71
2022/01/24 03:17:36;;;;;;;;;;;;;;;27.45;26.27;102541.31;5011343;28;718;-73
2022/01/24 03:20:02;;;;;;;;;;;;;;;27.79;25.69;102547.31;5011006;28;1388;-72
2022/01/24 03:22:29;;;;;;;;;;;;;;;27.20;26.53;102543.50;5011236;28;1065;-72
2022/01/24 03:24:55;;;;;;;;;;;;;;;25.80;27.90;102547.41;5010995;28;1053;-73
2022/01/24 03:27:22;;;;;;;;;;;;;;;27.28;26.53;102543.38;5011299;28;792;-73
2022/01/24 03:29:49;;;;;;;;;;;;;;;27.97;25.53;102541.31;5011232;28;1333;-72
2022/01/24 03:32:15;;;;;;;;;;;;;;;27.83;25.32;102549.53;5009816;28;1026;-70
2022/01/24 03:34:42;;;;;;;;;;;;;;;28.13;25.20;102555.03;5010952;28;1972;-72
2022/01/24 03:37:08;;;;;;;;;;;;;;;28.01;25.45;102559.41;5011078;28;1050;-71
2022/01/24 03:39:34;;;;;;;;;;;;;;;28.60;25.01;102560.22;5010965;28;1415;-70
2022/01/24 03:42:01;;;;;;;;;;;;;;;28.57;24.76;102555.91;5009723;28;1007;-70
2022/01/24 03:44:29;;;;;;;;;;;;;;;28.69;24.63;102553.47;5010770;28;1034;-71
2022/01/24 03:47:13;;;;;;;;;;;;;;;28.63;24.65;102557.00;5010902;28;768;-73
2022/01/24 03:49:53;;;;;;;;;;;;;;;28.45;24.80;102566.75;5010996;28;1342;-73
2022/01/24 03:52:19;;;;;;;;;;;;;;;28.75;24.29;102560.16;5011049;28;962;-73
2022/01/24 03:54:47;;;;;;;;;;;;;;;29.31;23.99;102557.34;5006567;28;2748;-72
2022/01/24 03:57:14;;;;;;;;;;;;;;;29.10;24.17;102561.06;5008616;28;1070;-71
2022/01/24 03:59:42;;;;;;;;;;;;;;;28.75;24.31;102561.00;5010210;28;1427;-72
2022/01/24 04:02:09;;;;;;;;;;;;;;;27.88;25.16;102558.16;5009575;28;1183;-72
2022/01/24 04:04:35;;;;;;;;;;;;;;;28.19;25.26;102562.63;5010642;28;784;-73
2022/01/24 04:07:01;;;;;;;;;;;;;;;28.65;24.78;102554.91;5009914;28;793;-70
2022/01/24 04:09:28;;;;;;;;;;;;;;;28.58;24.88;102551.16;5010734;28;1345;-73
2022/01/24 04:11:58;;;;;;;;;;;;;;;27.95;25.47;102554.56;5010759;28;1006;-73
2022/01/24 04:14:36;;;;;;;;;;;;;;;28.43;24.74;102554.91;5009415;28;1054;-72
2022/01/24 04:17:23;;;;;;;;;;;;;;;28.39;25.19;102561.94;5010884;28;1989;-71
2022/01/24 04:22:37;;;;;;;;;;;;;;;28.48;24.81;102555.16;5010814;28;927;-73
2022/01/24 04:25:05;;;;;;;;;;;;;;;28.07;25.23;102558.59;5013310;28;939;-71
2022/01/24 04:27:32;;;;;;;;;;;;;;;28.22;25.22;102556.63;5010600;28;1066;-72
2022/01/24 04:29:58;;;;;;;;;;;;;;;27.91;25.85;102554.09;5010537;28;1377;-71
2022/01/24 04:32:26;;;;;;;;;;;;;;;27.61;26.13;102547.75;5011040;28;995;-71
2022/01/24 04:34:52;;;;;;;;;;;;;;;27.94;25.89;102553.72;5013915;28;1054;-73
2022/01/24 04:37:18;;;;;;;;;;;;;;;27.60;26.27;102554.38;5014112;28;1977;-72
2022/01/24 04:39:45;;;;;;;;;;;;;;;27.74;25.96;102553.50;5013905;28;1384;-73
2022/01/24 04:42:15;;;;;;;;;;;;;;;27.85;25.61;102555.75;5013821;28;1038;-73
2022/01/24 04:44:55;;;;;;;;;;;;;;;27.51;25.71;102550.81;5013845;28;1007;-72
2022/01/24 04:47:27;;;;;;;;;;;;;;;28.28;25.19;102559.69;5013943;28;1041;-73
2022/01/24 04:52:47;;;;;;;;;;;;;;;28.10;25.64;102563.81;5014019;28;675;-74
2022/01/24 04:55:14;;;;;;;;;;;;;;;27.05;26.34;102563.00;5012224;28;1972;-70
2022/01/24 04:57:41;;;;;;;;;;;;;;;27.90;25.87;102567.19;5013759;28;1037;-73
2022/01/24 05:00:09;;;;;;;;;;;;;;;28.31;25.25;102567.66;5013704;28;1312;-72
2022/01/24 05:02:35;;;;;;;;;;;;;;;27.54;25.96;102562.44;5013713;28;800;-72
2022/01/24 05:05:03;;;;;;;;;;;;;;;27.60;25.89;102566.38;5012277;28;855;-72
2022/01/24 05:07:29;;;;;;;;;;;;;;;27.80;25.46;102566.63;5013971;28;840;-70
2022/01/24 05:10:02;;;;;;;;;;;;;;;28.43;25.00;102574.44;5013414;28;1295;-71
2022/01/24 05:21:10;;;;;;;;;;;;;;;27.33;26.34;102568.78;5027914;23;3812;-75
2022/01/24 05:23:33;;;;;;;;;;;;;;;27.20;26.48;102561.06;4994402;28;1045;-75
2022/01/24 05:26:00;;;;;;;;;;;;;;;27.85;25.65;102563.28;4992547;28;1030;-75
2022/01/24 05:28:27;;;;;;;;;;;;;;;28.25;25.13;102566.53;4994282;28;900;-74
2022/01/24 05:30:54;;;;;;;;;;;;;;;28.16;25.15;102564.94;4993976;28;1279;-75
2022/01/24 05:33:20;;;;;;;;;;;;;;;28.54;24.53;102573.03;4992878;28;1088;-77
2022/01/24 05:35:48;;;;;;;;;;;;;;;28.44;24.75;102564.16;4992350;28;1915;-77
2022/01/24 05:38:14;;;;;;;;;;;;;;;28.06;24.84;102568.03;4993852;28;801;-74
2022/01/24 05:40:40;;;;;;;;;;;;;;;28.19;24.80;102571.00;4993971;28;904;-76
2022/01/24 05:43:07;;;;;;;;;;;;;;;28.48;24.85;102574.72;4992423;28;1305;-76
2022/01/24 05:45:34;;;;;;;;;;;;;;;28.15;25.13;102569.63;4993266;28;785;-75
2022/01/24 05:48:00;;;;;;;;;;;;;;;27.94;25.35;102575.16;4996178;28;1298;-74
2022/01/24 05:50:26;;;;;;;;;;;;;;;28.39;24.81;102578.69;4998204;28;1050;-76
2022/01/24 05:52:54;;;;;;;;;;;;;;;28.36;24.55;102577.16;5004993;28;1513;-74
2022/01/24 05:55:20;;;;;;;;;;;;;;;28.19;24.56;102576.59;5011277;28;1918;-74
2022/01/24 05:57:47;;;;;;;;;;;;;;;28.46;24.59;102582.44;4981113;28;1637;-77
2022/01/24 06:00:14;;;;;;;;;;;;;;;27.77;25.11;102577.31;4993071;28;899;-75
2022/01/24 06:02:40;;;;;;;;;;;;;;;28.38;24.73;102579.75;4982894;28;1486;-78
2022/01/24 06:05:07;;;;;;;;;;;;;;;28.09;24.85;102580.72;4986476;28;1317;-77
2022/01/24 06:07:33;;;;;;;;;;;;;;;28.48;24.42;102596.19;4975024;28;932;-79
2022/01/24 06:10:01;;;;;;;;;;;;;;;28.31;24.72;102581.63;4999221;28;1740;-78
2022/01/24 06:12:28;;;;;;;;;;;;;;;27.60;25.53;102587.84;4995082;28;1411;-78
2022/01/24 06:14:54;;;;;;;;;;;;;;;27.95;25.13;102585.28;4993078;28;1670;-78
2022/01/24 06:17:20;;;;;;;;;;;;;;;28.18;25.22;102594.38;4998166;28;1985;-79
2022/01/24 06:19:46;;;;;;;;;;;;;;;27.81;25.51;102593.47;4990193;28;1535;-77
2022/01/24 06:22:13;;;;;;;;;;;;;;;28.03;24.94;102583.28;4974321;28;1408;-78
2022/01/24 06:24:39;;;;;;;;;;;;;;;27.67;24.99;102586.88;4988995;28;1534;-79
2022/01/24 06:27:07;;;;;;;;;;;;;;;27.83;25.43;102588.59;4996360;28;1050;-79
2022/01/24 06:29:33;;;;;;;;;;;;;;;27.75;25.19;102594.25;4986608;28;1518;-77
2022/01/24 06:31:59;;;;;;;;;;;;;;;27.41;25.55;102590.16;4963463;28;1315;-76
2022/01/24 06:34:26;;;;;;;;;;;;;;;27.36;25.77;102593.47;4988622;28;1429;-78
2022/01/24 06:36:52;;;;;;;;;;;;;;;28.19;25.05;102604.50;4993715;28;1947;-78
2022/01/24 06:39:18;;;;;;;;;;;;;;;27.10;26.18;102602.31;4978952;28;1602;-79
2022/01/24 06:41:51;;;;;;;;;;;;;;;27.66;25.47;102607.44;4997052;28;1492;-78
2022/01/24 06:44:20;;;;;;;;;;;;;;;27.60;25.43;102594.28;4995576;28;1211;-77
2022/01/24 06:46:46;;;;;;;;;;;;;;;27.97;24.96;102599.91;4995838;28;979;-78
2022/01/24 06:49:13;;;;;;;;;;;;;;;28.44;24.45;102608.84;4997149;28;919;-78
2022/01/24 06:51:40;;;;;;;;;;;;;;;28.09;24.99;102603.94;4991333;28;1463;-78
2022/01/24 06:54:06;;;;;;;;;;;;;;;27.90;24.88;102605.41;4978979;28;1011;-78
2022/01/24 06:56:32;;;;;;;;;;;;;;;28.07;24.73;102614.41;4977876;28;1915;-78
2022/01/24 06:58:58;;;;;;;;;;;;;;;27.59;25.71;102608.41;5000194;28;1316;-77
2022/01/24 07:01:26;;;;;;;;;;;;;;;27.68;25.47;102618.41;5000428;28;1366;-76
2022/01/24 07:03:52;;;;;;;;;;;;;;;27.87;25.10;102612.25;4991104;28;1680;-78
2022/01/24 07:06:19;;;;;;;;;;;;;;;26.72;26.61;102624.59;4995718;28;915;-78
2022/01/24 07:08:45;;;;;;;;;;;;;;;26.93;26.75;102623.03;4982874;28;1526;-78
2022/01/24 07:11:11;;;;;;;;;;;;;;;27.87;25.32;102625.31;4979476;28;1618;-79
2022/01/24 07:13:38;;;;;;;;;;;;;;;27.47;25.80;102628.44;4991946;28;1510;-79
2022/01/24 07:16:06;;;;;;;;;;;;;;;25.65;27.93;102627.94;4974154;28;1977;-76
2022/01/24 07:21:18;;;;;;;;;;;;;;;27.07;26.49;102630.53;4995271;28;1326;-77
2022/01/24 07:23:44;;;;;;;;;;;;;;;26.82;26.30;102614.06;4993572;28;1589;-79
2022/01/24 07:26:10;;;;;;;;;;;;;;;27.44;25.66;102626.00;4999596;28;968;-77
2022/01/24 07:28:36;;;;;;;;;;;;;;;27.42;26.07;102627.25;5001055;28;829;-77
2022/01/24 07:31:03;;;;;;;;;;;;;;;26.53;26.59;102625.94;4993050;28;1279;-77
2022/01/24 07:33:29;;;;;;;;;;;;;;;26.15;27.26;102625.81;4997015;28;1518;-78
2022/01/24 07:35:57;;;;;;;;;;;;;;;27.29;25.91;102625.97;4996252;28;1962;-79
2022/01/24 07:38:23;;;;;;;;;;;;;;;28.03;25.04;102629.84;5002866;28;1212;-77
2022/01/24 07:40:51;;;;;;;;;;;;;;;28.56;24.52;102632.38;4994557;28;1156;-75
2022/01/24 07:43:17;;;;;;;;;;;;;;;28.25;24.84;102632.66;4985133;28;1593;-75
2022/01/24 07:45:44;;;;;;;;;;;;;;;28.10;24.95;102632.72;4979113;28;1597;-75
2022/01/24 07:48:11;;;;;;;;;;;;;;;27.78;25.53;102635.72;4972993;28;779;-74
2022/01/24 07:50:40;;;;;;;;;;;;;;;26.99;26.37;102630.63;4983853;28;1371;-75
2022/01/24 07:53:08;;;;;;;;;;;;;;;27.26;26.05;102633.84;4987482;28;1565;-75
2022/01/24 07:55:34;;;;;;;;;;;;;;;27.96;25.43;102628.88;4983450;28;1554;-75
2022/01/24 07:58:01;;;;;;;;;;;;;;;27.69;25.64;102634.09;4993220;28;1906;-75
2022/01/24 08:00:27;;;;;;;;;;;;;;;27.78;25.53;102624.56;4991482;28;1054;-75
2022/01/24 08:02:53;;;;;;;;;;;;;;;27.93;25.31;102629.22;4991726;28;1433;-75
2022/01/24 08:05:20;;;;;;;;;;;;;;;27.64;25.50;102631.88;4990886;28;1519;-75
2022/01/24 08:07:46;;;;;;;;;;;;;;;26.51;26.83;102633.59;4994522;28;1010;-75
2022/01/24 08:10:14;;;;;;;;;;;;;;;27.81;25.33;102629.75;4991500;28;1360;-75
2022/01/24 08:12:43;;;;;;;;;;;;;;;28.15;24.89;102635.78;4995795;28;1503;-76
2022/01/24 08:15:11;;;;;;;;;;;;;;;28.72;24.48;102637.72;4995867;28;1499;-75
2022/01/24 08:17:38;;;;;;;;;;;;;;;28.20;24.76;102636.06;4995970;28;1906;-75
2022/01/24 08:20:04;;;;;;;;;;;;;;;28.45;24.38;102641.25;4996246;28;971;-74
2022/01/24 08:22:31;;;;;;;;;;;;;;;29.06;23.97;102635.19;4995978;28;1416;-74
2022/01/24 08:24:57;;;;;;;;;;;;;;;29.16;23.58;102632.94;4983200;28;1571;-74
2022/01/24 08:27:25;;;;;;;;;;;;;;;29.19;23.94;102634.44;4976885;28;862;-74
2022/01/24 08:29:52;;;;;;;;;;;;;;;29.35;23.32;102642.56;4989821;28;1204;-76
2022/01/24 08:32:18;;;;;;;;;;;;;;;28.89;23.86;102651.41;4995722;28;1420;-76
2022/01/24 08:34:45;;;;;;;;;;;;;;;28.86;24.26;102651.78;4993447;28;1566;-75
2022/01/24 08:37:12;;;;;;;;;;;;;;;28.79;24.14;102648.94;4994446;28;1910;-76
2022/01/24 08:39:39;;;;;;;;;;;;;;;28.48;24.22;102652.91;4986256;28;1518;-76
2022/01/24 08:42:13;;;;;;;;;;;;;;;28.40;24.94;102653.88;4977479;28;1550;-75
2022/01/24 08:47:26;;;;;;;;;;;;;;;29.19;23.90;102652.06;4997052;28;1105;-78
2022/01/24 08:49:52;;;;;;;;;;;;;;;29.01;23.81;102647.00;4995260;28;826;-77
2022/01/24 08:52:19;;;;;;;;;;;;;;;28.82;24.22;102656.94;4993156;28;1546;-77
2022/01/24 08:54:45;;;;;;;;;;;;;;;28.63;24.54;102650.03;4994005;28;1530;-77
2022/01/24 08:57:13;;;;;;;;;;;;;;;29.39;23.42;102654.19;4990475;28;1981;-75
2022/01/24 08:59:39;;;;;;;;;;;;;;;29.53;23.84;102650.44;4987169;28;1197;-75
2022/01/24 09:02:07;;;;;;;;;;;;;;;29.70;23.14;102641.69;4981681;28;1315;-75
2022/01/24 09:04:34;;;;;;;;;;;;;;;29.65;23.21;102652.63;4994844;28;1490;-76
2022/01/24 09:07:04;;;;;;;;;;;;;;;29.78;23.53;102638.72;4995654;28;844;-76
2022/01/24 09:09:30;;;;;;;;;;;;;;;29.39;23.78;102643.00;4994798;28;1462;-77
2022/01/24 09:11:57;;;;;;;;;;;;;;;29.42;23.95;102638.94;4996305;28;1486;-78
2022/01/24 09:14:24;;;;;;;;;;;;;;;29.88;23.05;102641.19;4995231;28;1164;-77
2022/01/24 09:16:50;;;;;;;;;;;;;;;29.26;23.71;102631.75;4994712;28;1918;-78
2022/01/24 09:19:18;;;;;;;;;;;;;;;29.43;23.98;102621.94;4995576;28;788;-77
2022/01/24 09:21:44;;;;;;;;;;;;;;;30.09;22.86;102619.72;4992677;28;1593;-78
2022/01/24 09:24:10;;;;;;;;;;;;;;;29.87;23.24;102623.50;4997212;28;1283;-74
2022/01/24 09:26:37;;;;;;;;;;;;;;;30.10;23.49;102627.06;4993648;28;1280;-76
2022/01/24 09:29:03;;;;;;;;;;;;;;;29.96;23.15;102628.91;4992530;28;1534;-76
2022/01/24 09:31:30;;;;;;;;;;;;;;;29.86;23.13;102626.50;4991986;28;1464;-77
2022/01/24 09:33:56;;;;;;;;;;;;;;;29.53;23.87;102622.47;4993222;28;1195;-77
2022/01/24 09:36:24;;;;;;;;;;;;;;;30.32;23.77;102624.94;4987785;28;1288;-75
2022/01/24 09:38:50;;;;;;;;;;;;;;;30.02;23.70;102633.69;4993626;28;1922;-75
2022/01/24 09:41:17;;;;;;;;;;;;;;;28.97;23.82;102633.63;4993761;28;1398;-75
2022/01/24 09:43:44;;;;;;;;;;;;;;;29.26;23.92;102634.53;4976996;28;1668;-77
2022/01/24 09:46:11;;;;;;;;;;;;;;;28.92;24.03;102634.25;4988534;28;1601;-76
2022/01/24 09:48:38;;;;;;;;;;;;;;;29.24;24.10;102637.50;4980836;28;1276;-77
2022/01/24 09:51:04;;;;;;;;;;;;;;;29.99;23.57;102634.13;4977952;28;1585;-75
2022/01/24 09:53:32;;;;;;;;;;;;;;;28.86;23.86;102643.41;5001546;28;1503;-76
2022/01/24 09:56:03;;;;;;;;;;;;;;;29.50;23.57;102639.63;4993600;28;1397;-76
2022/01/24 09:58:29;;;;;;;;;;;;;;;29.55;23.45;102641.81;4989152;28;2049;-76
2022/01/24 10:00:56;;;;;;;;;;;;;;;29.63;23.53;102632.41;4984648;28;1391;-76
2022/01/24 10:03:24;;;;;;;;;;;;;;;29.06;23.75;102626.81;4986573;28;1164;-77
2022/01/24 10:05:52;;;;;;;;;;;;;;;29.71;23.83;102624.69;4993640;28;1112;-77
2022/01/24 10:08:18;;;;;;;;;;;;;;;29.38;23.41;102630.09;4993819;28;1035;-76
2022/01/24 10:10:51;;;;;;;;;;;;;;;29.54;23.45;102620.50;4992009;28;1582;-76
2022/01/24 10:16:25;;;;;;;;;;;;;;;29.43;23.64;102621.09;4975476;28;1423;-75
2022/01/24 10:18:58;;;;;;;;;;;;;;;29.15;23.60;102614.41;4974376;28;1914;-77
2022/01/24 10:21:25;;;;;;;;;;;;;;;28.15;24.28;102611.50;4979073;28;1389;-77
2022/01/24 10:23:51;;;;;;;;;;;;;;;27.88;24.46;102618.66;4993018;28;1148;-76
2022/01/24 10:26:19;;;;;;;;;;;;;;;27.67;25.04;102616.66;4992616;28;1487;-77
2022/01/24 10:28:46;;;;;;;;;;;;;;;27.88;24.79;102599.16;4991503;28;1156;-76
2022/01/24 10:31:13;;;;;;;;;;;;;;;28.02;24.86;102608.56;4987475;28;1510;-77
2022/01/24 10:33:59;;;;;;;;;;;;;;;28.05;24.18;102605.41;4992735;28;1051;-77
2022/01/24 10:36:26;;;;;;;;;;;;;;;28.55;25.09;102609.16;4974713;28;1494;-77
2022/01/24 10:38:55;;;;;;;;;;;;;;;28.33;23.94;102601.84;4973158;28;1916;-77
2022/01/24 10:41:25;;;;;;;;;;;;;;;29.10;23.77;102599.34;4992556;28;1526;-77
2022/01/24 10:43:56;;;;;;;;;;;;;;;29.29;24.04;102583.78;4992085;28;1466;-77
2022/01/24 10:46:23;;;;;;;;;;;;;;;28.25;24.52;102590.78;4988496;28;1478;-77
2022/01/24 10:48:50;;;;;;;;;;;;;;;27.93;24.97;102584.59;4984887;28;1503;-76
2022/01/24 10:51:17;;;;;;;;;;;;;;;28.55;24.51;102586.81;4972357;28;1401;-76
2022/01/24 10:53:44;;;;;;;;;;;;;;;28.44;24.72;102592.09;4973768;28;1066;-76
2022/01/24 10:56:33;;;;;;;;;;;;;;;27.93;24.76;102585.47;4973229;28;1565;-76
2022/01/24 10:59:13;;;;;;;;;;;;;;;28.02;24.42;102586.22;4973300;28;1923;-76
2022/01/24 11:01:41;;;;;;;;;;;;;;;27.88;24.80;102590.78;4974609;28;1352;-77
2022/01/24 11:04:08;;;;;;;;;;;;;;;27.92;24.29;102585.69;4992418;28;966;-76
2022/01/24 11:06:35;;;;;;;;;;;;;;;28.61;24.24;102595.44;4987745;28;1237;-77
2022/01/24 11:09:11;;;;;;;;;;;;;;;27.95;24.60;102585.28;4985786;28;1269;-75
2022/01/24 11:14:16;;;;;;;;;;;;;;;27.11;24.97;102584.53;4969532;28;1387;-73
2022/01/24 11:16:42;;;;;;;;;;;;;;;28.13;24.84;102584.84;4971609;28;1642;-75
2022/01/24 11:19:15;;;;;;;;;;;;;;;27.42;24.85;102579.84;4967278;28;1914;-76
2022/01/24 11:21:43;;;;;;;;;;;;;;;27.61;24.79;102590.44;4969382;28;1337;-75
2022/01/24 11:24:10;;;;;;;;;;;;;;;28.27;24.02;102583.94;4954711;28;1388;-74
2022/01/24 11:26:36;;;;;;;;;;;;;;;28.49;23.98;102582.03;4964557;28;1241;-73
2022/01/24 11:29:03;;;;;;;;;;;;;;;28.26;24.04;102581.34;4951515;29;799;-75
2022/01/24 11:31:35;;;;;;;;;;;;;;;27.82;24.15;102575.69;4953560;28;896;-75
2022/01/24 11:34:05;;;;;;;;;;;;;;;27.50;24.34;102576.97;4971026;28;1672;-73
2022/01/24 11:36:36;;;;;;;;;;;;;;;28.10;24.04;102577.78;4970029;28;1649;-74
2022/01/24 11:39:04;;;;;;;;;;;;;;;27.59;24.77;102577.72;4971535;28;1919;-75
2022/01/24 11:41:33;;;;;;;;;;;;;;;27.42;24.28;102569.59;4974483;28;1456;-75
2022/01/24 11:44:07;;;;;;;;;;;;;;;26.92;25.00;102573.94;4972865;28;1555;-75
2022/01/24 11:46:41;;;;;;;;;;;;;;;26.97;25.08;102580.66;4976347;28;1054;-74
2022/01/24 11:49:08;;;;;;;;;;;;;;;26.80;25.30;102568.81;4977565;28;1444;-72
2022/01/24 11:51:37;;;;;;;;;;;;;;;27.39;24.95;102578.31;4974687;28;1402;-74
2022/01/24 11:54:03;;;;;;;;;;;;;;;28.12;23.37;102570.03;4984279;28;1487;-75
2022/01/24 11:56:31;;;;;;;;;;;;;;;27.59;24.46;102564.66;4985981;28;1388;-74
2022/01/24 11:59:16;;;;;;;;;;;;;;;27.53;24.17;102566.28;4975877;28;1918;-75
2022/01/24 12:01:45;;;;;;;;;;;;;;;28.32;23.55;102563.81;4970946;28;1441;-75
2022/01/24 12:04:12;;;;;;;;;;;;;;;27.47;23.95;102560.63;4964757;28;1463;-74
2022/01/24 12:07:02;;;;;;;;;;;;;;;27.11;24.49;102562.25;4974609;28;1289;-75
2022/01/24 12:09:28;;;;;;;;;;;;;;;26.75;24.64;102551.81;4964579;28;1189;-75
2022/01/24 12:11:55;;;;;;;;;;;;;;;27.54;24.16;102551.28;4976908;28;1424;-73
2022/01/24 12:14:36;;;;;;;;;;;;;;;27.27;24.13;102551.94;4977710;28;904;-75
2022/01/24 12:17:05;;;;;;;;;;;;;;;26.50;25.10;102563.13;4971813;28;1436;-74
2022/01/24 12:19:34;;;;;;;;;;;;;;;26.82;25.10;102563.06;4974737;28;1907;-75
2022/01/24 12:22:00;;;;;;;;;;;;;;;26.97;25.11;102549.16;4976819;28;1464;-74
2022/01/24 12:24:43;;;;;;;;;;;;;;;27.02;25.13;102552.25;4971337;28;1661;-73
2022/01/24 12:27:09;;;;;;;;;;;;;;;26.76;25.22;102545.16;4975002;28;1358;-74
2022/01/24 12:29:41;;;;;;;;;;;;;;;26.91;25.46;102542.41;4975265;28;1527;-75
2022/01/24 12:32:21;;;;;;;;;;;;;;;27.38;24.88;102548.72;4977061;28;1566;-74
2022/01/24 12:34:47;;;;;;;;;;;;;;;26.30;25.66;102548.00;4966860;28;1396;-74
2022/01/24 12:37:22;;;;;;;;;;;;;;;27.33;24.63;102542.84;4976448;28;1586;-77
2022/01/24 12:39:55;;;;;;;;;;;;;;;27.27;24.87;102551.94;4978505;28;1578;-75
2022/01/24 12:42:33;;;;;;;;;;;;;;;26.62;25.70;102544.06;4958375;28;1594;-74
2022/01/24 12:47:44;;;;;;;;;;;;;;;26.77;25.09;102534.91;4975788;28;1012;-73
2022/01/24 12:50:11;;;;;;;;;;;;;;;26.78;25.50;102540.28;4966288;28;1511;-74
2022/01/24 12:52:39;;;;;;;;;;;;;;;27.21;24.64;102540.50;4956340;28;1516;-74
2022/01/24 12:55:07;;;;;;;;;;;;;;;26.78;25.30;102539.41;4966023;28;1455;-73
2022/01/24 12:57:39;;;;;;;;;;;;;;;26.80;25.22;102531.75;4971856;28;1914;-73
2022/01/24 13:00:07;;;;;;;;;;;;;;;26.65;25.85;102535.31;4956277;28;1396;-75
2022/01/24 13:02:36;;;;;;;;;;;;;;;27.06;25.01;102539.66;4969247;28;1499;-74
2022/01/24 13:05:05;;;;;;;;;;;;;;;27.22;25.15;102539.47;4974307;28;1104;-73
2022/01/24 13:07:32;;;;;;;;;;;;;;;26.23;25.76;102532.03;4962038;28;1499;-75
2022/01/24 13:10:05;;;;;;;;;;;;;;;27.21;24.66;102526.56;4974084;28;1062;-74
2022/01/24 13:12:32;;;;;;;;;;;;;;;26.77;25.16;102526.56;4971233;28;1677;-75
2022/01/24 13:15:03;;;;;;;;;;;;;;;26.75;24.87;102526.75;4973656;28;1105;-75
2022/01/24 13:20:55;;;;;;;;;;;;;;;27.08;24.63;102528.31;4957949;28;1254;-74
2022/01/24 13:23:23;;;;;;;;;;;;;;;27.29;24.60;102531.19;4971710;28;1391;-74
2022/01/24 13:25:50;;;;;;;;;;;;;;;27.62;24.33;102536.38;4973222;28;1077;-74
2022/01/24 13:28:19;;;;;;;;;;;;;;;27.06;24.42;102532.16;4967925;28;1432;-73
2022/01/24 13:30:47;;;;;;;;;;;;;;;26.48;25.67;102529.03;4953608;29;873;-75
2022/01/24 13:33:15;;;;;;;;;;;;;;;26.69;25.22;102527.47;4962197;28;1512;-75
2022/01/24 13:35:44;;;;;;;;;;;;;;;26.31;25.60;102528.31;4963065;28;1369;-75
2022/01/24 13:38:11;;;;;;;;;;;;;;;26.43;25.57;102541.78;4960104;28;1926;-72
2022/01/24 13:40:39;;;;;;;;;;;;;;;26.27;25.63;102532.53;4973351;28;987;-76
2022/01/24 13:43:06;;;;;;;;;;;;;;;26.88;25.30;102535.31;4972440;28;1419;-74
2022/01/24 13:45:33;;;;;;;;;;;;;;;27.23;25.01;102537.53;4956319;28;1205;-76
2022/01/24 13:48:00;;;;;;;;;;;;;;;26.77;25.46;102548.84;4972423;28;1083;-76
2022/01/24 13:50:27;;;;;;;;;;;;;;;27.56;24.60;102546.38;4973675;28;920;-73
2022/01/24 13:52:55;;;;;;;;;;;;;;;27.69;24.34;102547.63;4972073;28;1331;-75
2022/01/24 13:55:22;;;;;;;;;;;;;;;27.26;24.68;102547.44;4973181;28;817;-75
2022/01/24 13:57:50;;;;;;;;;;;;;;;26.76;25.27;102538.75;4965746;28;1954;-73
2022/01/24 14:00:21;;;;;;;;;;;;;;;26.92;24.96;102543.28;4984827;28;1143;-75
2022/01/24 14:02:48;;;;;;;;;;;;;;;26.96;24.80;102537.13;4982816;28;1456;-76
2022/01/24 14:05:15;;;;;;;;;;;;;;;26.51;25.08;102545.38;4966360;28;1589;-75
2022/01/24 14:07:44;;;;;;;;;;;;;;;26.68;25.17;102537.72;4970281;28;1375;-74
2022/01/24 14:10:13;;;;;;;;;;;;;;;26.96;25.18;102544.63;4953711;28;1480;-75
2022/01/24 14:12:48;;;;;;;;;;;;;;;26.69;25.16;102538.59;4974208;28;1376;-75